sim
Sign-in with your pilot id or email,
or register
Callsign
Passwort

Schedule Details

Flight Number: RYR2988
Departure: Nis Constantine the Great Airport (LYNI) at 15:05
Arrival: Bratislava M. R. Stefanik Airport (LZIB) at 16:20
Route: Ryanair Passenger Schedule. Enter filed route here before submitting Pirep.

Weather Information
Getting current METAR information for LYNI 232100Z 09002KT CAVOK 12/06 Q1021 NOSIG
Getting current METAR information for LZIB 232100Z 05003KT CAVOK 13/10 Q1017

Schedule Frequency

Route Map